sensor_id;sensor_type;location;lat;lon;timestamp;pressure;altitude;pressure_sealevel;temperature;humidity
80405;BME280;69733;48.744;9.176;2023-08-06T00:00:37;96051.31;;;15.61;77.42
80405;BME280;69733;48.744;9.176;2023-08-06T00:03:05;96046.78;;;15.56;77.52
80405;BME280;69733;48.744;9.176;2023-08-06T00:05:31;96043.59;;;15.49;77.59
80405;BME280;69733;48.744;9.176;2023-08-06T00:07:56;96044.44;;;15.39;77.69
80405;BME280;69733;48.744;9.176;2023-08-06T00:10:21;96047.19;;;15.29;78.13
80405;BME280;69733;48.744;9.176;2023-08-06T00:12:47;96043.47;;;15.20;78.36
80405;BME280;69733;48.744;9.176;2023-08-06T00:15:13;96030.91;;;15.11;78.34
80405;BME280;69733;48.744;9.176;2023-08-06T00:17:39;96029.63;;;15.03;78.40
80405;BME280;69733;48.744;9.176;2023-08-06T00:20:04;96038.22;;;14.95;78.64
80405;BME280;69733;48.744;9.176;2023-08-06T00:22:34;96041.19;;;14.88;78.86
80405;BME280;69733;48.744;9.176;2023-08-06T00:25:00;96034.25;;;14.82;78.80
80405;BME280;69733;48.744;9.176;2023-08-06T00:27:25;96043.66;;;14.75;78.80
80405;BME280;69733;48.744;9.176;2023-08-06T00:29:51;96042.06;;;14.69;79.01
80405;BME280;69733;48.744;9.176;2023-08-06T00:32:17;96039.94;;;14.61;79.12
80405;BME280;69733;48.744;9.176;2023-08-06T00:34:42;96038.63;;;14.53;78.98
80405;BME280;69733;48.744;9.176;2023-08-06T00:37:07;96030.88;;;14.47;79.22
80405;BME280;69733;48.744;9.176;2023-08-06T00:39:33;96030.09;;;14.41;79.00
80405;BME280;69733;48.744;9.176;2023-08-06T00:42:01;96039.19;;;14.35;79.20
80405;BME280;69733;48.744;9.176;2023-08-06T00:44:26;96037.63;;;14.34;79.20
80405;BME280;69733;48.744;9.176;2023-08-06T00:46:52;96030.88;;;14.31;79.38
80405;BME280;69733;48.744;9.176;2023-08-06T00:49:18;96035.72;;;14.29;79.01
80405;BME280;69733;48.744;9.176;2023-08-06T00:51:43;96018.31;;;14.27;78.99
80405;BME280;69733;48.744;9.176;2023-08-06T00:54:09;96025.53;;;14.26;78.95
80405;BME280;69733;48.744;9.176;2023-08-06T00:56:34;96016.44;;;14.22;79.08
80405;BME280;69733;48.744;9.176;2023-08-06T00:59:04;96017.00;;;14.14;79.08
80405;BME280;69733;48.744;9.176;2023-08-06T01:01:31;96010.31;;;14.07;79.54
80405;BME280;69733;48.744;9.176;2023-08-06T01:03:56;96013.25;;;14.00;79.08
80405;BME280;69733;48.744;9.176;2023-08-06T01:06:52;96017.03;;;13.94;79.60
80405;BME280;69733;48.744;9.176;2023-08-06T01:09:35;96011.66;;;13.89;79.50
80405;BME280;69733;48.744;9.176;2023-08-06T01:12:12;96009.53;;;13.81;79.82
80405;BME280;69733;48.744;9.176;2023-08-06T01:15:24;96005.25;;;13.75;79.60
80405;BME280;69733;48.744;9.176;2023-08-06T01:17:50;96005.78;;;13.72;79.44
80405;BME280;69733;48.744;9.176;2023-08-06T01:20:16;96007.66;;;13.71;79.47
80405;BME280;69733;48.744;9.176;2023-08-06T01:22:41;96006.88;;;13.71;79.70
80405;BME280;69733;48.744;9.176;2023-08-06T01:25:07;96008.47;;;13.72;79.45
80405;BME280;69733;48.744;9.176;2023-08-06T01:27:46;96012.50;;;13.74;79.45
80405;BME280;69733;48.744;9.176;2023-08-06T01:30:16;96005.00;;;13.76;79.20
80405;BME280;69733;48.744;9.176;2023-08-06T01:32:45;95998.28;;;13.79;79.17
80405;BME280;69733;48.744;9.176;2023-08-06T01:35:12;95998.84;;;13.81;79.24
80405;BME280;69733;48.744;9.176;2023-08-06T01:37:39;96005.00;;;13.81;78.93
80405;BME280;69733;48.744;9.176;2023-08-06T01:40:15;95997.50;;;13.83;79.12
80405;BME280;69733;48.744;9.176;2023-08-06T01:42:40;95999.38;;;13.83;79.33
80405;BME280;69733;48.744;9.176;2023-08-06T01:45:07;95990.53;;;13.82;79.19
80405;BME280;69733;48.744;9.176;2023-08-06T01:47:33;95994.31;;;13.81;79.38
80405;BME280;69733;48.744;9.176;2023-08-06T01:49:58;95995.38;;;13.80;79.33
80405;BME280;69733;48.744;9.176;2023-08-06T01:52:23;95990.81;;;13.81;79.34
80405;BME280;69733;48.744;9.176;2023-08-06T01:54:49;95992.94;;;13.79;79.39
80405;BME280;69733;48.744;9.176;2023-08-06T01:57:17;95987.34;;;13.75;79.59
80405;BME280;69733;48.744;9.176;2023-08-06T01:59:42;95985.50;;;13.71;79.41
80405;BME280;69733;48.744;9.176;2023-08-06T02:02:08;95982.81;;;13.66;79.84
80405;BME280;69733;48.744;9.176;2023-08-06T02:04:33;95969.69;;;13.59;79.80
80405;BME280;69733;48.744;9.176;2023-08-06T02:06:58;95970.50;;;13.55;79.94
80405;BME280;69733;48.744;9.176;2023-08-06T02:09:24;95964.63;;;13.48;80.01
80405;BME280;69733;48.744;9.176;2023-08-06T02:11:49;95965.94;;;13.40;80.47
80405;BME280;69733;48.744;9.176;2023-08-06T02:14:14;95958.19;;;13.33;80.35
80405;BME280;69733;48.744;9.176;2023-08-06T02:16:40;95954.97;;;13.26;80.29
80405;BME280;69733;48.744;9.176;2023-08-06T02:19:05;95950.44;;;13.22;80.60
80405;BME280;69733;48.744;9.176;2023-08-06T02:21:30;95946.97;;;13.16;80.58
80405;BME280;69733;48.744;9.176;2023-08-06T02:24:02;95941.06;;;13.09;80.76
80405;BME280;69733;48.744;9.176;2023-08-06T02:26:27;95944.50;;;13.05;80.72
80405;BME280;69733;48.744;9.176;2023-08-06T02:28:52;95940.22;;;12.98;80.70
80405;BME280;69733;48.744;9.176;2023-08-06T02:31:18;95937.81;;;12.97;80.76
80405;BME280;69733;48.744;9.176;2023-08-06T02:33:43;95926.84;;;12.93;80.78
80405;BME280;69733;48.744;9.176;2023-08-06T02:36:08;95920.44;;;12.89;80.82
80405;BME280;69733;48.744;9.176;2023-08-06T02:38:34;95924.72;;;12.85;80.50
80405;BME280;69733;48.744;9.176;2023-08-06T02:41:02;95926.84;;;12.83;80.79
80405;BME280;69733;48.744;9.176;2023-08-06T02:43:27;95930.28;;;12.79;80.68
80405;BME280;69733;48.744;9.176;2023-08-06T02:45:56;95915.88;;;12.75;80.72
80405;BME280;69733;48.744;9.176;2023-08-06T02:48:22;95926.00;;;12.73;80.63
80405;BME280;69733;48.744;9.176;2023-08-06T02:50:48;95921.19;;;12.70;80.59
80405;BME280;69733;48.744;9.176;2023-08-06T02:53:13;95911.84;;;12.67;80.99
80405;BME280;69733;48.744;9.176;2023-08-06T02:55:45;95905.97;;;12.65;80.74
80405;BME280;69733;48.744;9.176;2023-08-06T02:58:11;95905.44;;;12.63;80.74
80405;BME280;69733;48.744;9.176;2023-08-06T03:00:37;95904.09;;;12.61;80.67
80405;BME280;69733;48.744;9.176;2023-08-06T03:03:02;95900.88;;;12.59;80.84
80405;BME280;69733;48.744;9.176;2023-08-06T03:05:27;95903.03;;;12.57;80.81
80405;BME280;69733;48.744;9.176;2023-08-06T03:07:53;95897.94;;;12.55;80.48
80405;BME280;69733;48.744;9.176;2023-08-06T03:10:18;95900.34;;;12.57;80.76
80405;BME280;69733;48.744;9.176;2023-08-06T03:12:43;95900.63;;;12.60;80.59
80405;BME280;69733;48.744;9.176;2023-08-06T03:15:09;95889.94;;;12.65;80.47
80405;BME280;69733;48.744;9.176;2023-08-06T03:17:34;95896.13;;;12.71;80.29
80405;BME280;69733;48.744;9.176;2023-08-06T03:19:59;95881.94;;;12.75;80.40
80405;BME280;69733;48.744;9.176;2023-08-06T03:22:25;95876.63;;;12.80;80.27
80405;BME280;69733;48.744;9.176;2023-08-06T03:24:50;95876.91;;;12.84;80.16
80405;BME280;69733;48.744;9.176;2023-08-06T03:27:16;95875.31;;;12.88;80.02
80405;BME280;69733;48.744;9.176;2023-08-06T03:29:44;95880.94;;;12.91;80.06
80405;BME280;69733;48.744;9.176;2023-08-06T03:32:12;95878.00;;;12.93;80.20
80405;BME280;69733;48.744;9.176;2023-08-06T03:34:38;95879.59;;;12.94;80.27
80405;BME280;69733;48.744;9.176;2023-08-06T03:37:06;95886.00;;;12.98;80.17
80405;BME280;69733;48.744;9.176;2023-08-06T03:39:34;95884.66;;;13.01;79.83
80405;BME280;69733;48.744;9.176;2023-08-06T03:42:00;95886.03;;;13.03;80.13
80405;BME280;69733;48.744;9.176;2023-08-06T03:44:25;95879.59;;;13.04;80.14
80405;BME280;69733;48.744;9.176;2023-08-06T03:46:52;95884.69;;;13.06;80.38
80405;BME280;69733;48.744;9.176;2023-08-06T03:49:17;95882.81;;;13.06;80.20
80405;BME280;69733;48.744;9.176;2023-08-06T03:51:42;95884.97;;;13.09;79.95
80405;BME280;69733;48.744;9.176;2023-08-06T03:54:11;95883.13;;;13.10;80.34
80405;BME280;69733;48.744;9.176;2023-08-06T03:56:36;95880.16;;;13.11;80.27
80405;BME280;69733;48.744;9.176;2023-08-06T03:59:04;95876.44;;;13.12;80.34
80405;BME280;69733;48.744;9.176;2023-08-06T04:01:30;95880.44;;;13.15;80.41
80405;BME280;69733;48.744;9.176;2023-08-06T04:03:55;95886.56;;;13.15;80.51
80405;BME280;69733;48.744;9.176;2023-08-06T04:06:20;95874.59;;;13.18;80.32
80405;BME280;69733;48.744;9.176;2023-08-06T04:08:48;95874.28;;;13.19;80.61
80405;BME280;69733;48.744;9.176;2023-08-06T04:11:14;95876.16;;;13.19;80.31
80405;BME280;69733;48.744;9.176;2023-08-06T04:13:42;95871.38;;;13.21;80.46
80405;BME280;69733;48.744;9.176;2023-08-06T04:16:08;95879.91;;;13.23;80.21
80405;BME280;69733;48.744;9.176;2023-08-06T04:18:33;95883.91;;;13.25;80.60
80405;BME280;69733;48.744;9.176;2023-08-06T04:20:58;95887.38;;;13.26;80.61
80405;BME280;69733;48.744;9.176;2023-08-06T04:23:24;95887.94;;;13.28;80.53
80405;BME280;69733;48.744;9.176;2023-08-06T04:25:49;95901.00;;;13.29;80.63
80405;BME280;69733;48.744;9.176;2023-08-06T04:28:15;95897.28;;;13.30;80.59
80405;BME280;69733;48.744;9.176;2023-08-06T04:30:40;95897.03;;;13.32;80.33
80405;BME280;69733;48.744;9.176;2023-08-06T04:33:05;95890.34;;;13.34;80.43
80405;BME280;69733;48.744;9.176;2023-08-06T04:35:31;95898.88;;;13.36;80.71
80405;BME280;69733;48.744;9.176;2023-08-06T04:37:56;95900.47;;;13.37;80.38
80405;BME280;69733;48.744;9.176;2023-08-06T04:40:21;95901.81;;;13.40;80.96
80405;BME280;69733;48.744;9.176;2023-08-06T04:42:47;95906.91;;;13.41;80.59
80405;BME280;69733;48.744;9.176;2023-08-06T04:45:12;95910.91;;;13.44;80.69
80405;BME280;69733;48.744;9.176;2023-08-06T04:47:37;95918.13;;;13.49;80.55
80405;BME280;69733;48.744;9.176;2023-08-06T04:50:03;95911.19;;;13.53;80.47
80405;BME280;69733;48.744;9.176;2023-08-06T04:52:28;95913.31;;;13.56;80.69
80405;BME280;69733;48.744;9.176;2023-08-06T04:54:54;95910.34;;;13.57;80.62
80405;BME280;69733;48.744;9.176;2023-08-06T04:57:20;95909.03;;;13.60;80.67
80405;BME280;69733;48.744;9.176;2023-08-06T04:59:46;95909.28;;;13.63;80.47
80405;BME280;69733;48.744;9.176;2023-08-06T05:02:11;95917.28;;;13.68;80.21
80405;BME280;69733;48.744;9.176;2023-08-06T05:04:36;95912.75;;;13.74;80.42
80405;BME280;69733;48.744;9.176;2023-08-06T05:07:02;95912.44;;;13.85;80.05
80405;BME280;69733;48.744;9.176;2023-08-06T05:09:28;95908.13;;;14.00;80.06
80405;BME280;69733;48.744;9.176;2023-08-06T05:11:53;95900.38;;;14.08;79.48
80405;BME280;69733;48.744;9.176;2023-08-06T05:14:18;95907.28;;;14.19;79.67
80405;BME280;69733;48.744;9.176;2023-08-06T05:16:43;95893.88;;;14.24;80.21
80405;BME280;69733;48.744;9.176;2023-08-06T05:19:09;95899.78;;;14.21;80.02
80405;BME280;69733;48.744;9.176;2023-08-06T05:21:34;95899.28;;;14.14;79.90
80405;BME280;69733;48.744;9.176;2023-08-06T05:23:59;95896.34;;;14.11;80.58
80405;BME280;69733;48.744;9.176;2023-08-06T05:26:24;95902.75;;;14.20;80.53
80405;BME280;69733;48.744;9.176;2023-08-06T05:28:50;95897.09;;;14.85;78.85
80405;BME280;69733;48.744;9.176;2023-08-06T05:31:15;95896.47;;;15.71;76.77
80405;BME280;69733;48.744;9.176;2023-08-06T05:33:40;95891.84;;;16.29;75.61
80405;BME280;69733;48.744;9.176;2023-08-06T05:36:06;95899.41;;;16.70;75.40
80405;BME280;69733;48.744;9.176;2023-08-06T05:38:31;95904.44;;;16.76;75.61
80405;BME280;69733;48.744;9.176;2023-08-06T05:40:56;95910.59;;;16.77;76.13
80405;BME280;69733;48.744;9.176;2023-08-06T05:43:22;95905.47;;;16.80;76.12
80405;BME280;69733;48.744;9.176;2023-08-06T05:45:49;95908.50;;;16.74;76.67
80405;BME280;69733;48.744;9.176;2023-08-06T05:48:15;95918.13;;;16.56;77.25
80405;BME280;69733;48.744;9.176;2023-08-06T05:50:40;95912.09;;;16.40;78.12
80405;BME280;69733;48.744;9.176;2023-08-06T05:53:06;95914.75;;;16.22;78.60
80405;BME280;69733;48.744;9.176;2023-08-06T05:55:31;95915.19;;;16.05;79.18
80405;BME280;69733;48.744;9.176;2023-08-06T05:57:58;95919.34;;;15.92;79.65
80405;BME280;69733;48.744;9.176;2023-08-06T06:00:23;95927.53;;;15.77;79.94
80405;BME280;69733;48.744;9.176;2023-08-06T06:02:48;95928.44;;;15.68;80.10
80405;BME280;69733;48.744;9.176;2023-08-06T06:05:14;95933.88;;;15.58;80.43
80405;BME280;69733;48.744;9.176;2023-08-06T06:07:39;95937.41;;;15.48;80.56
80405;BME280;69733;48.744;9.176;2023-08-06T06:10:05;95933.41;;;15.45;80.50
80405;BME280;69733;48.744;9.176;2023-08-06T06:12:30;95927.78;;;15.47;80.51
80405;BME280;69733;48.744;9.176;2023-08-06T06:14:56;95938.75;;;15.51;80.38
80405;BME280;69733;48.744;9.176;2023-08-06T06:17:21;95937.13;;;15.55;80.12
80405;BME280;69733;48.744;9.176;2023-08-06T06:19:47;95930.38;;;15.62;79.71
80405;BME280;69733;48.744;9.176;2023-08-06T06:22:12;95933.22;;;15.71;79.60
80405;BME280;69733;48.744;9.176;2023-08-06T06:24:37;95934.25;;;15.75;79.40
80405;BME280;69733;48.744;9.176;2023-08-06T06:27:03;95941.28;;;15.71;79.72
80405;BME280;69733;48.744;9.176;2023-08-06T06:29:28;95945.13;;;15.60;79.86
80405;BME280;69733;48.744;9.176;2023-08-06T06:31:54;95948.38;;;15.57;79.94
80405;BME280;69733;48.744;9.176;2023-08-06T06:34:19;95946.75;;;15.56;79.93
80405;BME280;69733;48.744;9.176;2023-08-06T06:36:44;95955.59;;;15.56;79.90
80405;BME280;69733;48.744;9.176;2023-08-06T06:39:10;95958.28;;;15.56;80.08
80405;BME280;69733;48.744;9.176;2023-08-06T06:41:35;95948.66;;;15.55;79.75
80405;BME280;69733;48.744;9.176;2023-08-06T06:44:00;95958.53;;;15.60;79.63
80405;BME280;69733;48.744;9.176;2023-08-06T06:46:26;95956.84;;;15.69;79.66
80405;BME280;69733;48.744;9.176;2023-08-06T06:48:51;95952.44;;;15.83;78.89
80405;BME280;69733;48.744;9.176;2023-08-06T06:51:16;95955.53;;;15.95;78.87
80405;BME280;69733;48.744;9.176;2023-08-06T06:53:42;95954.94;;;16.03;78.55
80405;BME280;69733;48.744;9.176;2023-08-06T06:56:07;95952.13;;;16.13;78.54
80405;BME280;69733;48.744;9.176;2023-08-06T06:58:32;95951.91;;;16.10;78.83
80405;BME280;69733;48.744;9.176;2023-08-06T07:00:58;95959.59;;;15.92;79.15
80405;BME280;69733;48.744;9.176;2023-08-06T07:03:23;95958.38;;;15.80;79.87
80405;BME280;69733;48.744;9.176;2023-08-06T07:05:50;95965.16;;;15.67;80.18
80405;BME280;69733;48.744;9.176;2023-08-06T07:08:15;95960.16;;;15.56;79.96
80405;BME280;69733;48.744;9.176;2023-08-06T07:10:41;95958.03;;;15.53;80.42
80405;BME280;69733;48.744;9.176;2023-08-06T07:13:07;95966.63;;;15.55;80.12
80405;BME280;69733;48.744;9.176;2023-08-06T07:15:33;95970.66;;;15.52;80.24
80405;BME280;69733;48.744;9.176;2023-08-06T07:17:58;95965.06;;;15.43;80.35
80405;BME280;69733;48.744;9.176;2023-08-06T07:20:23;95963.56;;;15.27;80.99
80405;BME280;69733;48.744;9.176;2023-08-06T07:22:49;95962.56;;;15.13;81.26
80405;BME280;69733;48.744;9.176;2023-08-06T07:25:15;95970.66;;;15.03;81.59
80405;BME280;69733;48.744;9.176;2023-08-06T07:27:41;95973.91;;;15.00;81.44
80405;BME280;69733;48.744;9.176;2023-08-06T07:30:07;95970.41;;;15.00;81.35
80405;BME280;69733;48.744;9.176;2023-08-06T07:32:32;95974.16;;;14.99;81.17
80405;BME280;69733;48.744;9.176;2023-08-06T07:34:57;95969.88;;;15.03;81.02
80405;BME280;69733;48.744;9.176;2023-08-06T07:37:26;95969.06;;;15.02;81.01
80405;BME280;69733;48.744;9.176;2023-08-06T07:39:53;95975.53;;;15.01;80.98
80405;BME280;69733;48.744;9.176;2023-08-06T07:42:19;95976.03;;;15.03;80.80
80405;BME280;69733;48.744;9.176;2023-08-06T07:44:51;95969.03;;;15.07;80.80
80405;BME280;69733;48.744;9.176;2023-08-06T07:47:16;95971.09;;;15.20;80.36
80405;BME280;69733;48.744;9.176;2023-08-06T07:49:42;95959.47;;;15.35;79.63
80405;BME280;69733;48.744;9.176;2023-08-06T07:52:07;95967.97;;;15.52;79.45
80405;BME280;69733;48.744;9.176;2023-08-06T07:54:32;95955.00;;;15.64;79.33
80405;BME280;69733;48.744;9.176;2023-08-06T07:56:58;95962.47;;;15.72;79.29
80405;BME280;69733;48.744;9.176;2023-08-06T07:59:23;95965.94;;;15.73;79.24
80405;BME280;69733;48.744;9.176;2023-08-06T08:01:48;95965.66;;;15.74;79.64
80405;BME280;69733;48.744;9.176;2023-08-06T08:04:14;95969.63;;;15.82;79.45
80405;BME280;69733;48.744;9.176;2023-08-06T08:06:39;95965.19;;;15.96;79.06
80405;BME280;69733;48.744;9.176;2023-08-06T08:09:04;95976.59;;;16.12;78.74
80405;BME280;69733;48.744;9.176;2023-08-06T08:11:29;95974.84;;;16.26;78.55
80405;BME280;69733;48.744;9.176;2023-08-06T08:13:55;95973.41;;;16.33;78.59
80405;BME280;69733;48.744;9.176;2023-08-06T08:16:20;95973.59;;;16.42;78.49
80405;BME280;69733;48.744;9.176;2023-08-06T08:18:45;95963.81;;;16.51;78.38
80405;BME280;69733;48.744;9.176;2023-08-06T08:21:11;95959.25;;;16.52;78.50
80405;BME280;69733;48.744;9.176;2023-08-06T08:23:36;95968.31;;;16.61;79.21
80405;BME280;69733;48.744;9.176;2023-08-06T08:26:01;95966.06;;;16.68;78.54
80405;BME280;69733;48.744;9.176;2023-08-06T08:28:27;95966.00;;;16.73;78.63
80405;BME280;69733;48.744;9.176;2023-08-06T08:30:52;95955.25;;;16.73;78.57
80405;BME280;69733;48.744;9.176;2023-08-06T08:33:18;95962.41;;;16.82;78.51
80405;BME280;69733;48.744;9.176;2023-08-06T08:35:45;95962.78;;;16.95;78.40
80405;BME280;69733;48.744;9.176;2023-08-06T08:38:11;95971.69;;;16.90;78.63
80405;BME280;69733;48.744;9.176;2023-08-06T08:40:45;95968.28;;;16.84;78.61
80405;BME280;69733;48.744;9.176;2023-08-06T08:43:12;95976.16;;;16.76;79.05
80405;BME280;69733;48.744;9.176;2023-08-06T08:45:39;95966.00;;;16.73;79.26
80405;BME280;69733;48.744;9.176;2023-08-06T08:48:07;95968.06;;;16.81;79.13
80405;BME280;69733;48.744;9.176;2023-08-06T08:50:33;95967.19;;;16.85;78.72
80405;BME280;69733;48.744;9.176;2023-08-06T08:52:59;95972.84;;;16.84;78.63
80405;BME280;69733;48.744;9.176;2023-08-06T08:55:25;95964.34;;;16.77;78.87
80405;BME280;69733;48.744;9.176;2023-08-06T08:57:51;95974.81;;;16.78;78.71
80405;BME280;69733;48.744;9.176;2023-08-06T09:00:16;95969.66;;;16.82;78.91
80405;BME280;69733;48.744;9.176;2023-08-06T09:02:44;95968.94;;;16.95;78.37
80405;BME280;69733;48.744;9.176;2023-08-06T09:05:10;95965.84;;;17.25;77.66
80405;BME280;69733;48.744;9.176;2023-08-06T09:07:41;95962.00;;;17.31;77.54
80405;BME280;69733;48.744;9.176;2023-08-06T09:10:10;95965.78;;;17.30;77.86
80405;BME280;69733;48.744;9.176;2023-08-06T09:12:37;95980.16;;;17.39;77.56
80405;BME280;69733;48.744;9.176;2023-08-06T09:15:09;95973.34;;;17.66;76.68
80405;BME280;69733;48.744;9.176;2023-08-06T09:17:35;95972.28;;;17.99;76.08
80405;BME280;69733;48.744;9.176;2023-08-06T09:20:09;95981.28;;;18.22;75.61
80405;BME280;69733;48.744;9.176;2023-08-06T09:22:35;95980.25;;;18.18;76.08
80405;BME280;69733;48.744;9.176;2023-08-06T09:25:07;95976.19;;;18.20;75.99
80405;BME280;69733;48.744;9.176;2023-08-06T09:27:37;95964.53;;;18.25;76.34
80405;BME280;69733;48.744;9.176;2023-08-06T09:30:03;95977.09;;;18.29;75.99
80405;BME280;69733;48.744;9.176;2023-08-06T09:32:49;95986.97;;;18.20;76.11
80405;BME280;69733;48.744;9.176;2023-08-06T09:35:18;95985.63;;;18.04;76.38
80405;BME280;69733;48.744;9.176;2023-08-06T09:37:44;95988.00;;;17.92;76.64
80405;BME280;69733;48.744;9.176;2023-08-06T09:40:42;95989.53;;;17.79;76.91
80405;BME280;69733;48.744;9.176;2023-08-06T09:43:07;95980.66;;;17.79;76.66
80405;BME280;69733;48.744;9.176;2023-08-06T09:45:34;95986.78;;;17.84;76.36
80405;BME280;69733;48.744;9.176;2023-08-06T09:48:03;95990.91;;;17.96;75.92
80405;BME280;69733;48.744;9.176;2023-08-06T09:50:30;95990.84;;;18.14;75.22
80405;BME280;69733;48.744;9.176;2023-08-06T09:53:00;95989.88;;;18.24;75.25
80405;BME280;69733;48.744;9.176;2023-08-06T09:55:26;95985.28;;;18.24;74.71
80405;BME280;69733;48.744;9.176;2023-08-06T09:57:52;95994.94;;;18.25;74.99
80405;BME280;69733;48.744;9.176;2023-08-06T10:00:18;95986.66;;;18.22;74.98
80405;BME280;69733;48.744;9.176;2023-08-06T10:02:45;95999.84;;;18.23;74.93
80405;BME280;69733;48.744;9.176;2023-08-06T10:05:14;95988.44;;;18.13;75.24
80405;BME280;69733;48.744;9.176;2023-08-06T10:07:42;95989.41;;;18.03;75.42
80405;BME280;69733;48.744;9.176;2023-08-06T10:10:08;95994.97;;;17.93;75.51
80405;BME280;69733;48.744;9.176;2023-08-06T10:12:37;95996.59;;;17.75;75.94
80405;BME280;69733;48.744;9.176;2023-08-06T10:15:05;95997.75;;;17.51;76.59
80405;BME280;69733;48.744;9.176;2023-08-06T10:17:34;96008.38;;;17.42;76.56
80405;BME280;69733;48.744;9.176;2023-08-06T10:20:08;96000.16;;;17.52;76.17
80405;BME280;69733;48.744;9.176;2023-08-06T10:22:34;95996.88;;;17.55;76.04
80405;BME280;69733;48.744;9.176;2023-08-06T10:25:03;96006.69;;;17.27;76.83
80405;BME280;69733;48.744;9.176;2023-08-06T10:27:34;96012.19;;;16.99;77.45
80405;BME280;69733;48.744;9.176;2023-08-06T10:32:48;96021.84;;;17.18;76.34
80405;BME280;69733;48.744;9.176;2023-08-06T10:35:45;96009.78;;;17.58;75.20
80405;BME280;69733;48.744;9.176;2023-08-06T10:38:15;96021.34;;;17.77;75.12
80405;BME280;69733;48.744;9.176;2023-08-06T10:43:27;96018.59;;;17.64;75.34
80405;BME280;69733;48.744;9.176;2023-08-06T10:45:52;96027.53;;;17.78;75.05
80405;BME280;69733;48.744;9.176;2023-08-06T10:48:44;96019.19;;;17.93;74.78
80405;BME280;69733;48.744;9.176;2023-08-06T10:51:12;96019.38;;;18.15;74.25
80405;BME280;69733;48.744;9.176;2023-08-06T10:53:48;96032.03;;;18.15;74.61
80405;BME280;69733;48.744;9.176;2023-08-06T10:56:14;96031.44;;;18.18;74.29
80405;BME280;69733;48.744;9.176;2023-08-06T10:58:40;96027.56;;;18.24;74.27
80405;BME280;69733;48.744;9.176;2023-08-06T11:01:06;96027.00;;;18.27;74.40
80405;BME280;69733;48.744;9.176;2023-08-06T11:03:32;96030.88;;;18.21;74.48
80405;BME280;69733;48.744;9.176;2023-08-06T11:06:04;96032.16;;;18.23;74.21
80405;BME280;69733;48.744;9.176;2023-08-06T11:08:36;96037.94;;;18.17;74.43
80405;BME280;69733;48.744;9.176;2023-08-06T11:11:12;96040.50;;;18.08;74.62
80405;BME280;69733;48.744;9.176;2023-08-06T11:13:48;96038.47;;;18.00;74.84
80405;BME280;69733;48.744;9.176;2023-08-06T11:16:15;96033.53;;;17.88;74.92
80405;BME280;69733;48.744;9.176;2023-08-06T11:18:42;96048.19;;;17.64;75.60
80405;BME280;69733;48.744;9.176;2023-08-06T11:21:08;96057.72;;;17.32;76.13
80405;BME280;69733;48.744;9.176;2023-08-06T11:23:34;96054.06;;;17.23;76.02
80405;BME280;69733;48.744;9.176;2023-08-06T11:25:59;96064.41;;;17.35;75.68
80405;BME280;69733;48.744;9.176;2023-08-06T11:28:25;96065.66;;;17.42;75.23
80405;BME280;69733;48.744;9.176;2023-08-06T11:30:51;96065.03;;;17.69;74.36
80405;BME280;69733;48.744;9.176;2023-08-06T11:33:26;96065.72;;;18.12;73.27
80405;BME280;69733;48.744;9.176;2023-08-06T11:35:52;96060.72;;;18.38;72.96
80405;BME280;69733;48.744;9.176;2023-08-06T11:38:19;96073.72;;;18.50;72.79
80405;BME280;69733;48.744;9.176;2023-08-06T11:40:45;96076.06;;;18.24;73.50
80405;BME280;69733;48.744;9.176;2023-08-06T11:43:11;96094.66;;;17.88;74.18
80405;BME280;69733;48.744;9.176;2023-08-06T11:45:40;96082.94;;;17.79;74.22
80405;BME280;69733;48.744;9.176;2023-08-06T11:48:06;96087.44;;;17.83;73.57
80405;BME280;69733;48.744;9.176;2023-08-06T11:50:36;96080.66;;;17.86;73.24
80405;BME280;69733;48.744;9.176;2023-08-06T11:53:02;96096.47;;;17.74;73.32
80405;BME280;69733;48.744;9.176;2023-08-06T11:55:28;96099.09;;;17.55;73.54
80405;BME280;69733;48.744;9.176;2023-08-06T11:57:54;96095.59;;;17.60;73.45
80405;BME280;69733;48.744;9.176;2023-08-06T12:00:22;96105.56;;;17.54;73.24
80405;BME280;69733;48.744;9.176;2023-08-06T12:02:49;96106.00;;;17.42;72.87
80405;BME280;69733;48.744;9.176;2023-08-06T12:05:19;96111.84;;;17.26;73.21
80405;BME280;69733;48.744;9.176;2023-08-06T12:07:52;96109.22;;;17.21;72.80
80405;BME280;69733;48.744;9.176;2023-08-06T12:10:19;96113.97;;;17.05;72.92
80405;BME280;69733;48.744;9.176;2023-08-06T12:12:45;96117.56;;;16.96;72.63
80405;BME280;69733;48.744;9.176;2023-08-06T12:15:11;96127.72;;;17.04;72.17
80405;BME280;69733;48.744;9.176;2023-08-06T12:17:37;96125.06;;;16.99;72.35
80405;BME280;69733;48.744;9.176;2023-08-06T12:20:03;96130.09;;;17.05;71.49
80405;BME280;69733;48.744;9.176;2023-08-06T12:22:33;96125.75;;;16.85;71.85
80405;BME280;69733;48.744;9.176;2023-08-06T12:25:03;96120.50;;;16.99;71.24
80405;BME280;69733;48.744;9.176;2023-08-06T12:27:29;96127.63;;;17.09;70.81
80405;BME280;69733;48.744;9.176;2023-08-06T12:29:54;96137.66;;;17.03;70.67
80405;BME280;69733;48.744;9.176;2023-08-06T12:32:20;96134.91;;;17.08;70.57
80405;BME280;69733;48.744;9.176;2023-08-06T12:34:45;96146.91;;;17.16;70.07
80405;BME280;69733;48.744;9.176;2023-08-06T12:37:10;96141.09;;;17.09;69.93
80405;BME280;69733;48.744;9.176;2023-08-06T12:39:37;96143.44;;;17.15;69.77
80405;BME280;69733;48.744;9.176;2023-08-06T12:42:04;96141.44;;;17.26;69.34
80405;BME280;69733;48.744;9.176;2023-08-06T12:44:30;96140.53;;;17.35;68.94
80405;BME280;69733;48.744;9.176;2023-08-06T12:46:56;96143.53;;;17.53;68.50
80405;BME280;69733;48.744;9.176;2023-08-06T12:49:21;96143.13;;;17.64;68.14
80405;BME280;69733;48.744;9.176;2023-08-06T12:51:50;96140.22;;;17.61;68.31
80405;BME280;69733;48.744;9.176;2023-08-06T12:54:20;96150.34;;;17.69;67.75
80405;BME280;69733;48.744;9.176;2023-08-06T12:56:46;96156.41;;;17.79;67.45
80405;BME280;69733;48.744;9.176;2023-08-06T12:59:14;96162.00;;;17.83;67.32
80405;BME280;69733;48.744;9.176;2023-08-06T13:01:40;96162.44;;;17.90;66.99
80405;BME280;69733;48.744;9.176;2023-08-06T13:04:05;96170.59;;;17.85;66.92